createdAt,value
2022-08-19T00:00:30.107Z,100406.56
2022-08-19T00:02:58.834Z,100410.47
2022-08-19T00:05:27.807Z,100400.94
2022-08-19T00:07:56.119Z,100411.97
2022-08-19T00:10:24.948Z,100420.59
2022-08-19T00:12:54.342Z,100419.69
2022-08-19T00:15:23.644Z,100417.44
2022-08-19T00:17:52.238Z,100414.03
2022-08-19T00:20:23.052Z,100414.22
2022-08-19T00:22:51.248Z,100415.91
2022-08-19T00:25:19.199Z,100409.91
2022-08-19T00:28:00.328Z,100413.69
2022-08-19T00:30:28.416Z,100417.59
2022-08-19T00:32:56.635Z,100423.31
2022-08-19T00:35:26.268Z,100422.06
2022-08-19T00:37:55.837Z,100416.44
2022-08-19T00:40:26.371Z,100412.16
2022-08-19T00:42:55.335Z,100410.38
2022-08-19T00:45:27.704Z,100410.75
2022-08-19T00:47:55.586Z,100412.81
2022-08-19T00:50:25.072Z,100408.44
2022-08-19T00:52:53.529Z,100407.22
2022-08-19T00:55:26.447Z,100405.19
2022-08-19T00:57:57.039Z,100405.63
2022-08-19T01:00:28.852Z,100407.63
2022-08-19T01:02:57.101Z,100412.78
2022-08-19T01:05:28.436Z,100405.72
2022-08-19T01:07:59.281Z,100393.16
2022-08-19T01:10:33.544Z,100400.94
2022-08-19T01:13:05.057Z,100396.72
2022-08-19T01:15:40.267Z,100397.53
2022-08-19T01:18:09.584Z,100390.69
2022-08-19T01:20:37.624Z,100398.88
2022-08-19T01:23:07.024Z,100389.16
2022-08-19T01:25:40.669Z,100392.56
2022-08-19T01:28:10.613Z,100383.41
2022-08-19T01:30:38.964Z,100395.06
2022-08-19T01:33:12.392Z,100389.66
2022-08-19T01:35:41.203Z,100391.88
2022-08-19T01:38:22.604Z,100399.16
2022-08-19T01:40:50.525Z,100402.44
2022-08-19T01:43:19.923Z,100405.22
2022-08-19T01:45:48.643Z,100397.84
2022-08-19T01:48:16.664Z,100396.59
2022-08-19T01:50:44.648Z,100388.47
2022-08-19T01:53:17.193Z,100395.59
2022-08-19T01:55:46.386Z,100393.53
2022-08-19T01:58:17.752Z,100395.03
2022-08-19T02:00:46.184Z,100401.28
2022-08-19T02:03:14.891Z,100399.66
2022-08-19T02:05:43.899Z,100401.94
2022-08-19T02:08:12.635Z,100399.03
2022-08-19T02:10:45.828Z,100395.25
2022-08-19T02:13:15.714Z,100396.56
2022-08-19T02:15:49.341Z,100402.25
2022-08-19T02:18:18.241Z,100395.00
2022-08-19T02:20:47.950Z,100393.09
2022-08-19T02:23:16.642Z,100392.97
2022-08-19T02:25:50.303Z,100386.97
2022-08-19T02:28:19.262Z,100376.72
2022-08-19T02:30:48.552Z,100383.47
2022-08-19T02:33:18.759Z,100384.03
2022-08-19T02:35:48.131Z,100385.44
2022-08-19T02:38:26.889Z,100381.03
2022-08-19T02:40:58.827Z,100376.38
2022-08-19T02:43:28.397Z,100384.13
2022-08-19T02:45:57.747Z,100380.75
2022-08-19T02:48:27.689Z,100389.44
2022-08-19T02:50:56.741Z,100388.31
2022-08-19T02:53:26.396Z,100388.69
2022-08-19T02:55:54.591Z,100387.63
2022-08-19T02:58:25.391Z,100381.34
2022-08-19T03:00:56.632Z,100375.69
2022-08-19T03:03:24.703Z,100376.69
2022-08-19T03:05:56.872Z,100376.28
2022-08-19T03:08:26.902Z,100371.03
2022-08-19T03:10:55.699Z,100366.59
2022-08-19T03:13:25.279Z,100364.00
2022-08-19T03:15:53.598Z,100362.56
2022-08-19T03:18:23.322Z,100371.19
2022-08-19T03:20:53.931Z,100365.00
2022-08-19T03:23:22.298Z,100364.59
2022-08-19T03:26:03.981Z,100372.44
2022-08-19T03:28:51.351Z,100371.09
2022-08-19T03:31:44.764Z,100379.88
2022-08-19T03:34:13.544Z,100384.09
2022-08-19T03:36:42.503Z,100384.03
2022-08-19T03:39:11.436Z,100391.06
2022-08-19T03:41:45.523Z,100388.06
2022-08-19T03:44:17.994Z,100391.31
2022-08-19T03:46:47.135Z,100384.94
2022-08-19T03:49:15.573Z,100376.66
2022-08-19T03:51:46.101Z,100379.22
2022-08-19T03:54:16.615Z,100379.00
2022-08-19T03:56:46.940Z,100377.28
2022-08-19T03:59:17.759Z,100395.22
2022-08-19T04:01:46.627Z,100397.69
2022-08-19T04:04:14.486Z,100399.00
2022-08-19T04:06:42.316Z,100397.72
2022-08-19T04:09:11.984Z,100398.72
2022-08-19T04:11:44.509Z,100390.97
2022-08-19T04:14:15.175Z,100400.03
2022-08-19T04:16:45.766Z,100395.69
2022-08-19T04:19:14.262Z,100391.44
2022-08-19T04:21:42.292Z,100395.53
2022-08-19T04:24:11.315Z,100398.53
2022-08-19T04:26:40.114Z,100394.22
2022-08-19T04:29:12.776Z,100391.56
2022-08-19T04:31:42.126Z,100391.31
2022-08-19T04:34:12.847Z,100380.25
2022-08-19T04:36:43.096Z,100385.16
2022-08-19T04:39:13.911Z,100383.00
2022-08-19T04:42:00.041Z,100396.38
2022-08-19T04:44:33.106Z,100397.81
2022-08-19T04:47:02.115Z,100394.34
2022-08-19T04:49:40.386Z,100394.69
2022-08-19T04:52:09.463Z,100390.53
2022-08-19T04:54:39.403Z,100390.09
2022-08-19T04:57:11.165Z,100401.00
2022-08-19T04:59:40.746Z,100400.41
2022-08-19T05:02:09.477Z,100398.22
2022-08-19T05:04:40.191Z,100406.56
2022-08-19T05:07:11.133Z,100408.31
2022-08-19T05:09:58.427Z,100415.34
2022-08-19T05:12:29.214Z,100408.69
2022-08-19T05:14:57.714Z,100409.88
2022-08-19T05:17:28.406Z,100403.28
2022-08-19T05:20:16.658Z,100416.22
2022-08-19T05:22:50.035Z,100412.03
2022-08-19T05:25:21.470Z,100420.41
2022-08-19T05:27:49.806Z,100422.63
2022-08-19T05:30:18.983Z,100421.94
2022-08-19T05:32:58.089Z,100425.31
2022-08-19T05:35:26.075Z,100432.38
2022-08-19T05:37:59.015Z,100430.34
2022-08-19T05:40:27.151Z,100427.31
2022-08-19T05:42:56.959Z,100426.88
2022-08-19T05:45:25.595Z,100425.09
2022-08-19T05:47:54.235Z,100429.25
2022-08-19T05:50:23.563Z,100421.56
2022-08-19T05:53:52.822Z,100426.31
2022-08-19T05:56:22.146Z,100426.38
2022-08-19T05:58:49.877Z,100413.66
2022-08-19T06:01:20.190Z,100425.09
2022-08-19T06:03:48.716Z,100419.69
2022-08-19T06:06:18.498Z,100424.31
2022-08-19T06:08:51.609Z,100419.47
2022-08-19T06:11:24.692Z,100410.19
2022-08-19T06:13:59.815Z,100408.59
2022-08-19T06:16:29.374Z,100414.56
2022-08-19T06:18:58.584Z,100412.91
2022-08-19T06:21:29.464Z,100402.06
2022-08-19T06:23:58.288Z,100418.09
2022-08-19T06:26:28.563Z,100422.97
2022-08-19T06:28:56.344Z,100428.69
2022-08-19T06:31:27.330Z,100417.28
2022-08-19T06:33:56.055Z,100426.50
2022-08-19T06:36:28.029Z,100420.81
2022-08-19T06:38:56.050Z,100419.97
2022-08-19T06:41:23.936Z,100416.69
2022-08-19T06:43:54.212Z,100414.53
2022-08-19T06:46:24.506Z,100403.88
2022-08-19T06:48:54.242Z,100406.56
2022-08-19T06:51:23.268Z,100411.22
2022-08-19T06:53:54.871Z,100412.75
2022-08-19T06:56:26.716Z,100411.59
2022-08-19T06:58:57.018Z,100407.50
2022-08-19T07:01:24.876Z,100402.25
2022-08-19T07:03:53.224Z,100394.56
2022-08-19T07:09:10.585Z,100393.41
2022-08-19T07:11:40.400Z,100399.38
2022-08-19T07:14:19.171Z,100402.66
2022-08-19T07:16:49.866Z,100407.09
2022-08-19T07:19:18.606Z,100404.84
2022-08-19T07:21:47.635Z,100413.16
2022-08-19T07:24:16.292Z,100420.22
2022-08-19T07:26:46.068Z,100413.53
2022-08-19T07:29:17.531Z,100420.00
2022-08-19T07:31:46.173Z,100418.16
2022-08-19T07:34:15.713Z,100421.91
2022-08-19T07:37:46.398Z,100424.31
2022-08-19T07:40:14.819Z,100425.41
2022-08-19T07:43:46.941Z,100430.84
2022-08-19T07:47:49.678Z,100440.75
2022-08-19T07:50:07.708Z,100441.94
2022-08-19T07:52:36.955Z,100450.63
2022-08-19T07:55:06.179Z,100442.91
2022-08-19T07:57:34.998Z,100452.34
2022-08-19T08:00:03.374Z,100459.16
2022-08-19T08:02:32.026Z,100456.09
2022-08-19T08:05:17.190Z,100451.38
2022-08-19T08:08:03.616Z,100456.69
2022-08-19T08:10:31.538Z,100455.88
2022-08-19T08:13:09.220Z,100466.22
2022-08-19T08:15:43.169Z,100465.06
2022-08-19T08:18:12.944Z,100463.34
2022-08-19T08:21:46.647Z,100469.13
2022-08-19T08:24:19.668Z,100474.91
2022-08-19T08:26:52.011Z,100476.28
2022-08-19T08:29:20.376Z,100473.63
2022-08-19T08:31:49.660Z,100470.53
2022-08-19T08:35:32.587Z,100477.59
2022-08-19T08:38:01.882Z,100476.34
2022-08-19T08:40:35.780Z,100480.66
2022-08-19T08:43:22.337Z,100487.13
2022-08-19T08:45:54.624Z,100478.81
2022-08-19T08:48:27.222Z,100492.00
2022-08-19T08:50:57.524Z,100480.69
2022-08-19T08:53:29.827Z,100486.75
2022-08-19T08:56:04.897Z,100475.09
2022-08-19T08:58:43.050Z,100489.59
2022-08-19T09:01:11.877Z,100477.63
2022-08-19T09:03:43.366Z,100472.22
2022-08-19T09:06:16.957Z,100482.09
2022-08-19T09:08:51.365Z,100483.06
2022-08-19T09:11:44.467Z,100471.53
2022-08-19T09:14:47.262Z,100470.88
2022-08-19T09:17:09.688Z,100482.72
2022-08-19T09:19:38.157Z,100482.22
2022-08-19T09:22:08.647Z,100478.88
2022-08-19T09:24:39.413Z,100492.69
2022-08-19T09:27:18.419Z,100473.16
2022-08-19T09:29:47.390Z,100488.06
2022-08-19T09:32:26.260Z,100481.97
2022-08-19T09:34:55.596Z,100474.03
2022-08-19T09:37:24.080Z,100481.47
2022-08-19T09:39:53.417Z,100485.56
2022-08-19T09:42:30.553Z,100483.81
2022-08-19T09:45:04.958Z,100480.78
2022-08-19T09:47:33.773Z,100480.03
2022-08-19T09:50:02.255Z,100473.25
2022-08-19T09:52:32.839Z,100469.31
2022-08-19T09:55:01.139Z,100473.59
2022-08-19T09:57:37.686Z,100471.81
2022-08-19T10:00:07.133Z,100470.06
2022-08-19T10:02:35.064Z,100460.25
2022-08-19T10:05:23.122Z,100457.50
2022-08-19T10:07:56.819Z,100475.03
2022-08-19T10:10:26.538Z,100462.72
2022-08-19T10:12:57.142Z,100462.97
2022-08-19T10:15:29.206Z,100464.22
2022-08-19T10:18:01.017Z,100459.59
2022-08-19T10:20:30.364Z,100466.47
2022-08-19T10:23:00.280Z,100457.50
2022-08-19T10:25:29.720Z,100464.31
2022-08-19T10:28:01.502Z,100457.75
2022-08-19T10:30:29.394Z,100460.00
2022-08-19T10:32:57.110Z,100450.41
2022-08-19T10:35:27.492Z,100456.59
2022-08-19T10:37:57.615Z,100448.59
2022-08-19T10:40:30.542Z,100457.34
2022-08-19T10:42:59.670Z,100468.97
2022-08-19T10:45:28.124Z,100461.94
2022-08-19T10:47:56.394Z,100447.25
2022-08-19T10:50:42.853Z,100455.56
2022-08-19T10:53:12.380Z,100466.38
2022-08-19T10:56:06.893Z,100463.25
2022-08-19T10:58:36.145Z,100448.28
2022-08-19T11:01:03.824Z,100440.69
2022-08-19T11:03:32.186Z,100454.78
2022-08-19T11:06:00.929Z,100448.25
2022-08-19T11:08:28.747Z,100447.31
2022-08-19T11:11:01.685Z,100446.34
2022-08-19T11:13:30.890Z,100447.91
2022-08-19T11:16:08.276Z,100461.06
2022-08-19T11:18:38.300Z,100458.47
2022-08-19T11:21:11.499Z,100454.44
2022-08-19T11:23:39.772Z,100449.25
2022-08-19T11:26:07.735Z,100434.88
2022-08-19T11:28:35.605Z,100443.56
2022-08-19T11:31:05.147Z,100433.38
2022-08-19T11:33:33.704Z,100429.59
2022-08-19T11:36:02.671Z,100443.31
2022-08-19T11:38:31.508Z,100424.59
2022-08-19T11:41:00.320Z,100431.13
2022-08-19T11:43:28.821Z,100446.69
2022-08-19T11:45:57.119Z,100444.72
2022-08-19T11:48:27.859Z,100446.97
2022-08-19T11:50:57.482Z,100438.59
2022-08-19T11:53:25.924Z,100440.22
2022-08-19T11:55:57.027Z,100434.53
2022-08-19T11:58:25.805Z,100430.31
2022-08-19T12:00:54.038Z,100441.44
2022-08-19T12:03:21.671Z,100437.63
2022-08-19T12:05:52.419Z,100427.72
2022-08-19T12:08:20.961Z,100437.53
2022-08-19T12:10:48.670Z,100431.94
2022-08-19T12:13:19.549Z,100433.94
2022-08-19T12:15:48.950Z,100420.50
2022-08-19T12:18:17.142Z,100436.22
2022-08-19T12:20:46.959Z,100420.94
2022-08-19T12:23:16.539Z,100422.28
2022-08-19T12:25:49.504Z,100413.94
2022-08-19T12:28:17.762Z,100415.84
2022-08-19T12:30:45.648Z,100412.91
2022-08-19T12:33:14.650Z,100403.41
2022-08-19T12:35:45.675Z,100402.19
2022-08-19T12:38:14.263Z,100405.09
2022-08-19T12:40:43.820Z,100418.69
2022-08-19T12:43:12.610Z,100422.09
2022-08-19T12:45:40.781Z,100405.31
2022-08-19T12:48:34.435Z,100406.47
2022-08-19T12:50:58.294Z,100403.47
2022-08-19T12:53:27.315Z,100400.28
2022-08-19T12:55:58.627Z,100418.06
2022-08-19T12:58:27.453Z,100404.78
2022-08-19T13:00:55.943Z,100399.97
2022-08-19T13:03:28.398Z,100398.31
2022-08-19T13:05:57.340Z,100399.78
2022-08-19T13:08:25.581Z,100393.41
2022-08-19T13:10:54.482Z,100402.66
2022-08-19T13:13:23.889Z,100394.13
2022-08-19T13:15:52.056Z,100397.94
2022-08-19T13:18:20.078Z,100404.00
2022-08-19T13:20:52.746Z,100392.22
2022-08-19T13:23:20.950Z,100366.44
2022-08-19T13:25:58.095Z,100388.38
2022-08-19T13:28:49.398Z,100388.56
2022-08-19T13:31:35.954Z,100390.47
2022-08-19T13:34:03.656Z,100365.50
2022-08-19T13:36:31.580Z,100375.44
2022-08-19T13:39:00.246Z,100372.97
2022-08-19T13:41:28.883Z,100380.88
2022-08-19T13:43:58.218Z,100369.31
2022-08-19T13:46:26.040Z,100368.88
2022-08-19T13:48:55.529Z,100367.75
2022-08-19T13:51:23.837Z,100361.47
2022-08-19T13:53:52.759Z,100361.47
2022-08-19T13:56:25.549Z,100364.88
2022-08-19T13:58:54.745Z,100371.47
2022-08-19T14:01:31.778Z,100373.34
2022-08-19T14:04:00.519Z,100370.88
2022-08-19T14:06:28.526Z,100361.91
2022-08-19T14:08:56.283Z,100359.31
2022-08-19T14:11:24.583Z,100364.63
2022-08-19T14:13:53.055Z,100371.88
2022-08-19T14:16:20.879Z,100358.91
2022-08-19T14:18:50.306Z,100355.94
2022-08-19T14:21:22.184Z,100359.22
2022-08-19T14:23:52.149Z,100356.19
2022-08-19T14:26:21.501Z,100350.75
2022-08-19T14:28:50.329Z,100365.63
2022-08-19T14:31:20.450Z,100358.94
2022-08-19T14:33:52.792Z,100350.09
2022-08-19T14:36:22.806Z,100354.38
2022-08-19T14:38:51.007Z,100366.75
2022-08-19T14:41:22.873Z,100353.63
2022-08-19T14:43:54.136Z,100357.41
2022-08-19T14:46:24.185Z,100365.03
2022-08-19T14:48:54.855Z,100357.81
2022-08-19T14:51:27.456Z,100355.13
2022-08-19T14:53:57.599Z,100345.00
2022-08-19T14:56:27.288Z,100347.41
2022-08-19T14:58:55.969Z,100351.75
2022-08-19T15:01:24.852Z,100360.06
2022-08-19T15:03:55.753Z,100365.47
2022-08-19T15:06:24.743Z,100362.63
2022-08-19T15:08:54.285Z,100358.19
2022-08-19T15:11:24.500Z,100380.50
2022-08-19T15:13:53.457Z,100360.13
2022-08-19T15:16:22.264Z,100363.75
2022-08-19T15:18:51.981Z,100377.59
2022-08-19T15:21:26.489Z,100371.09
2022-08-19T15:23:57.292Z,100379.16
2022-08-19T15:26:28.637Z,100383.50
2022-08-19T15:28:57.664Z,100371.56
2022-08-19T15:31:29.078Z,100386.84
2022-08-19T15:33:58.413Z,100382.47
2022-08-19T15:36:31.176Z,100373.66
2022-08-19T15:39:00.093Z,100390.25
2022-08-19T15:41:32.544Z,100378.88
2022-08-19T15:44:08.217Z,100382.28
2022-08-19T15:46:38.021Z,100379.81
2022-08-19T15:49:07.157Z,100380.63
2022-08-19T15:51:41.879Z,100383.38
2022-08-19T15:54:12.144Z,100382.84
2022-08-19T15:56:58.678Z,100388.91
2022-08-19T15:59:47.510Z,100393.03
2022-08-19T16:02:33.065Z,100400.44
2022-08-19T16:05:21.466Z,100401.66
2022-08-19T16:07:51.148Z,100405.25
2022-08-19T16:10:26.920Z,100407.84
2022-08-19T16:12:58.616Z,100403.13
2022-08-19T16:15:28.004Z,100400.06
2022-08-19T16:17:58.521Z,100401.34
2022-08-19T16:20:28.181Z,100409.97
2022-08-19T16:22:58.684Z,100402.69
2022-08-19T16:25:28.951Z,100393.41
2022-08-19T16:28:06.260Z,100407.50
2022-08-19T16:30:34.992Z,100404.28
2022-08-19T16:33:05.041Z,100403.78
2022-08-19T16:35:34.035Z,100409.28
2022-08-19T16:38:07.131Z,100400.56
2022-08-19T16:40:36.266Z,100417.25
2022-08-19T16:43:04.469Z,100418.19
2022-08-19T16:45:32.590Z,100411.06
2022-08-19T16:48:00.250Z,100421.59
2022-08-19T16:50:47.842Z,100418.84
2022-08-19T16:53:22.889Z,100411.22
2022-08-19T16:55:57.454Z,100417.25
2022-08-19T16:58:28.040Z,100417.91
2022-08-19T17:01:02.048Z,100417.38
2022-08-19T17:03:35.834Z,100411.72
2022-08-19T17:06:16.164Z,100420.94
2022-08-19T17:08:52.974Z,100419.97
2022-08-19T17:11:22.992Z,100409.31
2022-08-19T17:14:52.397Z,100415.16
2022-08-19T17:17:23.800Z,100414.31
2022-08-19T17:19:56.618Z,100411.41
2022-08-19T17:23:42.663Z,100408.81
2022-08-19T17:26:15.857Z,100405.44
2022-08-19T17:28:49.243Z,100411.09
2022-08-19T17:32:24.918Z,100398.31
2022-08-19T17:34:54.927Z,100394.78
2022-08-19T17:37:24.011Z,100389.91
2022-08-19T17:39:51.807Z,100391.34
2022-08-19T17:42:23.628Z,100390.56
2022-08-19T17:48:32.859Z,100378.75
2022-08-19T17:51:01.155Z,100378.78
2022-08-19T17:53:29.590Z,100382.19
2022-08-19T17:55:57.356Z,100380.22
2022-08-19T17:58:28.594Z,100381.03
2022-08-19T18:00:57.715Z,100380.72
2022-08-19T18:03:26.627Z,100393.78
2022-08-19T18:05:56.021Z,100389.56
2022-08-19T18:08:25.701Z,100389.88
2022-08-19T18:10:54.358Z,100394.66
2022-08-19T18:13:22.089Z,100394.31
2022-08-19T18:15:54.531Z,100396.56
2022-08-19T18:18:23.460Z,100398.25
2022-08-19T18:20:51.567Z,100394.31
2022-08-19T18:23:44.754Z,100405.59
2022-08-19T18:26:09.318Z,100395.50
2022-08-19T18:28:47.934Z,100397.56
2022-08-19T18:31:19.494Z,100406.75
2022-08-19T18:33:48.178Z,100406.63
2022-08-19T18:36:27.864Z,100414.97
2022-08-19T18:39:19.416Z,100410.19
2022-08-19T18:42:06.377Z,100414.09
2022-08-19T18:44:59.226Z,100411.88
2022-08-19T18:47:48.573Z,100417.56
2022-08-19T18:50:16.352Z,100420.59
2022-08-19T18:52:44.573Z,100427.13
2022-08-19T18:55:16.476Z,100435.53
2022-08-19T18:57:44.417Z,100439.53
2022-08-19T19:00:14.177Z,100436.88
2022-08-19T19:02:44.241Z,100435.84
2022-08-19T19:05:14.458Z,100447.00
2022-08-19T19:07:42.892Z,100446.00
2022-08-19T19:10:11.794Z,100441.13
2022-08-19T19:12:44.446Z,100445.94
2022-08-19T19:15:12.362Z,100453.84
2022-08-19T19:17:42.108Z,100453.84
2022-08-19T19:20:12.058Z,100469.03
2022-08-19T19:22:40.764Z,100462.00
2022-08-19T19:25:12.050Z,100466.47
2022-08-19T19:27:40.907Z,100469.28
2022-08-19T19:30:09.714Z,100464.91
2022-08-19T19:32:39.134Z,100467.06
2022-08-19T19:35:09.808Z,100470.19
2022-08-19T19:37:43.640Z,100478.47
2022-08-19T19:40:11.705Z,100474.59
2022-08-19T19:42:39.613Z,100484.38
2022-08-19T19:45:08.380Z,100487.13
2022-08-19T19:47:36.429Z,100483.88
2022-08-19T19:50:14.195Z,100481.81
2022-08-19T19:52:46.706Z,100486.31
2022-08-19T19:55:18.310Z,100490.44
2022-08-19T19:57:47.444Z,100484.16
2022-08-19T20:00:18.450Z,100488.59
2022-08-19T20:02:50.199Z,100486.97
2022-08-19T20:05:21.025Z,100490.34
2022-08-19T20:08:11.944Z,100490.94
2022-08-19T20:10:42.706Z,100488.44
2022-08-19T20:13:11.016Z,100487.69
2022-08-19T20:15:43.574Z,100485.56
2022-08-19T20:18:13.427Z,100486.69
2022-08-19T20:20:41.801Z,100486.59
2022-08-19T20:23:11.001Z,100488.28
2022-08-19T20:25:39.826Z,100492.13
2022-08-19T20:28:07.528Z,100497.88
2022-08-19T20:30:36.287Z,100502.31
2022-08-19T20:33:08.437Z,100504.09
2022-08-19T20:35:38.021Z,100506.69
2022-08-19T20:38:08.825Z,100508.34
2022-08-19T20:40:41.180Z,100509.75
2022-08-19T20:43:11.342Z,100505.44
2022-08-19T20:45:39.400Z,100494.25
2022-08-19T20:48:08.910Z,100507.34
2022-08-19T20:50:37.215Z,100504.38
2022-08-19T20:53:12.577Z,100514.47
2022-08-19T20:55:45.530Z,100523.53
2022-08-19T20:58:14.632Z,100530.28
2022-08-19T21:00:45.713Z,100519.94
2022-08-19T21:03:14.597Z,100528.19
2022-08-19T21:05:42.526Z,100528.66
2022-08-19T21:08:10.914Z,100535.66
2022-08-19T21:10:42.274Z,100534.59
2022-08-19T21:13:14.779Z,100534.13
2022-08-19T21:15:44.154Z,100532.50
2022-08-19T21:18:13.737Z,100529.00
2022-08-19T21:20:42.649Z,100531.47
2022-08-19T21:23:13.455Z,100527.13
2022-08-19T21:25:41.506Z,100531.03
2022-08-19T21:28:29.914Z,100530.97
2022-08-19T21:31:10.562Z,100532.38
2022-08-19T21:33:39.181Z,100534.34
2022-08-19T21:36:07.903Z,100536.59
2022-08-19T21:38:36.026Z,100540.94
2022-08-19T21:41:06.088Z,100534.38
2022-08-19T21:43:35.718Z,100540.22
2022-08-19T21:46:06.213Z,100539.44
2022-08-19T21:48:34.308Z,100532.28
2022-08-19T21:51:02.081Z,100530.66
2022-08-19T21:53:34.118Z,100543.81
2022-08-19T21:56:04.177Z,100538.38
2022-08-19T21:58:31.906Z,100540.53
2022-08-19T22:01:06.484Z,100544.16
2022-08-19T22:03:34.947Z,100538.19
2022-08-19T22:06:02.817Z,100536.50
2022-08-19T22:08:31.454Z,100543.34
2022-08-19T22:11:00.886Z,100544.44
2022-08-19T22:13:32.268Z,100543.66
2022-08-19T22:16:01.705Z,100548.03
2022-08-19T22:18:31.585Z,100545.56
2022-08-19T22:21:00.366Z,100553.22
2022-08-19T22:23:28.263Z,100543.97
2022-08-19T22:25:56.935Z,100546.13
2022-08-19T22:28:28.030Z,100546.66
2022-08-19T22:30:57.378Z,100548.34
2022-08-19T22:33:27.670Z,100542.06
2022-08-19T22:35:55.755Z,100549.47
2022-08-19T22:38:24.694Z,100559.25
2022-08-19T22:40:53.344Z,100559.28
2022-08-19T22:43:24.902Z,100558.00
2022-08-19T22:45:54.745Z,100555.00
2022-08-19T22:48:24.340Z,100545.25
2022-08-19T22:51:56.331Z,100550.13
2022-08-19T22:54:27.288Z,100545.84
2022-08-19T22:56:56.913Z,100543.09
2022-08-19T22:59:25.722Z,100546.41
2022-08-19T23:01:54.721Z,100542.59
2022-08-19T23:04:23.229Z,100542.28
2022-08-19T23:06:52.860Z,100547.44
2022-08-19T23:09:23.479Z,100540.38
2022-08-19T23:11:56.805Z,100533.81
2022-08-19T23:14:26.441Z,100544.19
2022-08-19T23:16:58.768Z,100543.16
2022-08-19T23:19:27.330Z,100541.25
2022-08-19T23:21:57.642Z,100532.25
2022-08-19T23:24:26.982Z,100532.53
2022-08-19T23:27:15.786Z,100530.38
2022-08-19T23:30:01.983Z,100523.00
2022-08-19T23:32:29.936Z,100529.03
2022-08-19T23:35:59.311Z,100520.31
2022-08-19T23:38:30.198Z,100530.78
2022-08-19T23:40:59.760Z,100525.06
2022-08-19T23:43:31.406Z,100514.63
2022-08-19T23:46:10.493Z,100513.81
2022-08-19T23:48:39.833Z,100513.31
2022-08-19T23:51:10.624Z,100506.25
2022-08-19T23:53:39.348Z,100516.66
2022-08-19T23:56:08.554Z,100511.84
2022-08-19T23:58:39.519Z,100509.81
